Aeroporto :
LOGIN :

Iscrizione | Disclaimer

   EN    FR    IT 

 










Sommario :    VFR   VFR Marginale   IFR   IFR Intensivo   IFR Molto Intensivo
Visibilità : 
Base nubi : 
>= 8 km
>= 3000ft
5 / 8 km
1000 / 3000 ft
1500m / 5 km
500 / 1000 ft
800 / 1500m
200 / 500 ft
< 800m
< 200 ft
Simboli :   Temporali  Nebbia  Neve Forte  Precipitazioni Forti  Vento > 20 kt
SIGMETs :   Varie  Temporali  Ghiacco  Turbolenza  Onda orograficha  Ceneri Vulcaniche






- Altitudine del aeroporto : 1516 ft
- Codice IATA : AGB


EDMA - Augsburg

ULTIMO METAR :
  • 271620Z 03005KT 9999 VCTS FEW038 BKN043CB 19/13 Q1016

METARs OBSOLETI :
  • 271550Z 06006KT 360V110 9999 VCTS FEW037CB 20/13 Q1016
  • 271520Z 06004KT 010V100 8000 VCTS SCT036CB 21/12 Q1016
  • 271450Z 04006KT 350V070 9999 FEW035 SCT045 21/14 Q1016
  • 271420Z 01003KT 310V060 9999 SCT035 21/13 Q1017
  • 271350Z 35004KT 280V030 9999 SCT034 SCT044 21/13 Q1017
  • 271320Z 32005KT 270V350 9999 SCT033 20/13 Q1017
  • 271250Z VRB02KT 9999 SCT033 BKN040 20/13 Q1018
  • 271220Z 33003KT 260V030 9999 SCT032 20/13 Q1018
  • 271150Z VRB03KT 9999 SCT029 20/13 Q1018

TAF TAF EDMA
Valido dal 27 a 15 ore il 28 a 00 ore UTC


271400Z 2715/2724 01005KT 9999 SCT030
BECMG 2716/2719 29006KT
PROB40
TEMPO 2717/2721 33020G30KT 4000 TSRA BKN020CB
TEMPO 2721/2724 RA BKN012



MetMap, La meteo Aeronautica in un colpo d'occhio ! - Copyright ORBIFLY Dicembre 2007 - Disclaimer

ORBIFLY MET'MAP TEAM :

Programmazione e sviluppo : Alexandra Zaïnal
Concezione : Baudouin d'Aumeries
Supporto tecnico e logistico : Manuel Goepfert
Aiuto : Marc-Olivier Méhu
Aiuto per la traduzione : Arnaldo La Scala




FONTI E CREDITI :

   NOAA